Time;durP1;ratioP1;P1;durP2;ratioP2;P2;SDS_P1;SDS_P2;PMS_P1;PMS_P2;Temp;Humidity;BMP_temperature;BMP_pressure;BME280_temperature;BME280_humidity;BME280_pressure;Samples;Min_cycle;Max_cycle;Signal;HPM_P1;HPM_P2
2023/08/11 00:02:18;;;;;;;1.23;0.40;;;16.60;99.90;;;;;;5039700;28;20514;-88
2023/08/11 00:04:43;;;;;;;0.35;0.20;;;16.50;99.90;;;;;;5056548;28;20071;-88
2023/08/11 00:07:10;;;;;;;0.00;0.00;;;16.30;99.90;;;;;;5056249;28;20041;-88
2023/08/11 00:09:36;;;;;;;6.95;2.28;;;16.20;99.90;;;;;;5057372;28;20041;-89
2023/08/11 00:12:02;;;;;;;0.15;0.15;;;16.10;99.90;;;;;;5057454;28;20045;-88
2023/08/11 00:14:27;;;;;;;0.52;0.38;;;15.90;99.90;;;;;;5056799;28;20059;-88
2023/08/11 00:16:53;;;;;;;1.27;0.77;;;15.80;1.00;;;;;;5059087;28;20053;-88
2023/08/11 00:19:19;;;;;;;2.90;0.75;;;16.40;1.00;;;;;;5056715;28;20387;-88
2023/08/11 00:21:44;;;;;;;0.20;0.20;;;16.90;99.90;;;;;;5040213;28;20067;-88
2023/08/11 00:24:11;;;;;;;0.22;0.22;;;15.40;99.90;;;;;;5056840;28;20056;-88
2023/08/11 00:26:36;;;;;;;0.40;0.17;;;15.30;99.90;;;;;;5056582;28;20049;-88
2023/08/11 00:29:02;;;;;;;0.40;0.30;;;15.20;99.90;;;;;;5058186;28;20079;-88
2023/08/11 00:31:29;;;;;;;0.52;0.50;;;15.10;99.90;;;;;;5040221;28;20506;-88
2023/08/11 00:33:55;;;;;;;0.13;0.13;;;15.00;99.90;;;;;;5056459;28;20049;-89
2023/08/11 00:36:21;;;;;;;0.90;0.65;;;15.00;1.00;;;;;;5058335;28;20059;-88
2023/08/11 00:38:47;;;;;;;0.55;0.52;;;14.90;64.30;;;;;;5056234;28;20087;-89
2023/08/11 00:41:16;;;;;;;0.10;0.10;;;14.80;99.90;;;;;;5056681;28;20415;-88
2023/08/11 00:43:42;;;;;;;1.38;1.25;;;15.20;99.90;;;;;;5058209;28;20467;-88
2023/08/11 00:46:11;;;;;;;0.10;0.10;;;14.70;99.90;;;;;;5058364;28;20060;-89
2023/08/11 00:48:38;;;;;;;0.25;0.25;;;14.60;99.90;;;;;;5056833;28;20079;-88
2023/08/11 00:51:05;;;;;;;1.60;0.60;;;14.60;99.90;;;;;;5056682;28;20055;-88
2023/08/11 00:53:36;;;;;;;6.30;0.95;;;14.50;99.90;;;;;;5057103;28;20052;-88
2023/08/11 00:56:03;;;;;;;0.45;0.45;;;14.50;1.00;;;;;;5040203;28;20059;-88
2023/08/11 00:58:30;;;;;;;0.88;0.70;;;14.40;1.00;;;;;;5056534;28;20051;-88
2023/08/11 01:01:00;;;;;;;2.80;2.00;;;14.30;1.00;;;;;;5056512;28;20053;-88
2023/08/11 01:03:26;;;;;;;1.15;0.55;;;14.30;1.00;;;;;;5057131;28;20049;-88
2023/08/11 01:06:23;;;;;;;0.10;0.10;;;14.30;1.00;;;;;;5056320;28;20577;-88
2023/08/11 01:09:01;;;;;;;;;;;14.20;1.00;;;;;;5041375;28;20045;-88
2023/08/11 01:11:55;;;;;;;0.60;0.57;;;14.20;1.00;;;;;;5039181;28;19943;-88
2023/08/11 01:14:27;;;;;;;1.33;0.70;;;14.20;12.30;;;;;;5057505;28;20055;-88
2023/08/11 01:16:55;;;;;;;11.30;2.92;;;14.10;25.30;;;;;;5055582;28;20063;-88
2023/08/11 01:19:31;;;;;;;0.45;0.43;;;14.10;38.90;;;;;;5055451;28;20053;-88
2023/08/11 01:22:00;;;;;;;0.93;0.93;;;14.10;49.90;;;;;;5055618;28;20132;-88
2023/08/11 01:24:28;;;;;;;0.28;0.25;;;14.00;48.30;;;;;;5057723;28;20037;-89
2023/08/11 01:26:54;;;;;;;0.25;0.25;;;14.00;76.50;;;;;;5057597;28;20047;-88
2023/08/11 01:29:20;;;;;;;0.55;0.50;;;14.00;99.90;;;;;;5056619;28;20109;-88
2023/08/11 01:31:46;;;;;;;2.55;1.15;;;14.00;99.90;;;;;;5039328;28;20198;-88
2023/08/11 01:34:11;;;;;;;0.90;0.63;;;14.40;99.90;;;;;;5056023;28;20072;-88
2023/08/11 01:36:40;;;;;;;1.02;0.82;;;14.00;99.90;;;;;;5055769;28;20051;-88
2023/08/11 01:39:07;;;;;;;0.90;0.55;;;14.00;99.90;;;;;;5055767;28;20053;-88
2023/08/11 01:41:33;;;;;;;0.28;0.28;;;14.00;99.90;;;;;;5056063;28;20139;-88
2023/08/11 01:43:59;;;;;;;1.95;1.30;;;13.90;99.90;;;;;;5039587;28;20189;-87
2023/08/11 01:46:27;;;;;;;0.57;0.57;;;13.90;99.90;;;;;;5040845;28;20101;-88
2023/08/11 01:48:55;;;;;;;0.68;0.68;;;14.60;99.90;;;;;;5055867;28;20067;-88
2023/08/11 01:51:23;;;;;;;0.85;0.85;;;13.90;99.90;;;;;;5067649;28;20037;-88
2023/08/11 01:53:50;;;;;;;3.85;1.48;;;13.90;99.90;;;;;;5073006;28;20080;-88
2023/08/11 01:56:16;;;;;;;1.65;1.05;;;13.90;99.90;;;;;;5070499;28;20167;-88
2023/08/11 01:58:42;;;;;;;1.05;1.02;;;13.90;99.90;;;;;;5072008;28;20052;-88
2023/08/11 02:01:07;;;;;;;1.08;0.73;;;14.20;99.90;;;;;;5056165;28;20100;-88
2023/08/11 02:03:33;;;;;;;2.72;1.55;;;14.00;99.90;;;;;;5073252;28;20045;-88
2023/08/11 02:05:59;;;;;;;5.03;1.75;;;14.00;99.90;;;;;;5056711;28;20037;-89
2023/08/11 02:08:25;;;;;;;0.35;0.30;;;14.00;99.90;;;;;;5073520;28;20037;-88
2023/08/11 02:10:53;;;;;;;0.30;0.30;;;14.00;99.90;;;;;;5072700;28;20250;-88
2023/08/11 02:13:19;;;;;;;2.55;1.55;;;13.90;99.90;;;;;;5068994;28;20045;-88
2023/08/11 02:15:45;;;;;;;2.38;1.30;;;15.40;99.90;;;;;;5045012;28;20049;-88
2023/08/11 02:18:10;;;;;;;1.17;1.08;;;13.90;99.90;;;;;;5058083;28;20045;-89
2023/08/11 02:20:36;;;;;;;0.13;0.13;;;13.90;99.90;;;;;;5057942;28;20048;-88
2023/08/11 02:23:02;;;;;;;0.60;0.60;;;13.90;99.90;;;;;;5040436;28;20108;-88
2023/08/11 02:25:28;;;;;;;6.13;1.05;;;13.90;99.90;;;;;;5040090;28;20080;-88
2023/08/11 02:27:54;;;;;;;3.97;1.55;;;13.80;99.90;;;;;;5057516;28;20095;-88
2023/08/11 02:30:21;;;;;;;0.65;0.63;;;13.80;99.90;;;;;;5059558;28;20072;-88
2023/08/11 02:32:47;;;;;;;1.65;1.05;;;13.80;99.90;;;;;;5042540;28;20079;-88
2023/08/11 02:35:14;;;;;;;2.25;2.05;;;13.80;99.90;;;;;;5058412;28;20061;-88
2023/08/11 02:37:41;;;;;;;0.57;0.57;;;13.80;99.90;;;;;;5058975;28;20051;-88
2023/08/11 02:40:10;;;;;;;2.30;1.00;;;14.60;99.90;;;;;;5058785;28;20056;-88
2023/08/11 02:42:45;;;;;;;2.25;1.23;;;13.40;99.90;;;;;;5041891;28;20053;-88
2023/08/11 02:45:11;;;;;;;1.10;0.85;;;13.80;99.90;;;;;;5059606;28;20047;-88
2023/08/11 02:47:39;;;;;;;0.88;0.80;;;15.00;99.90;;;;;;5057985;28;20041;-88
2023/08/11 02:50:05;;;;;;;2.67;1.65;;;13.80;99.90;;;;;;5041583;28;20037;-88
2023/08/11 02:52:31;;;;;;;0.73;0.73;;;13.80;99.90;;;;;;5058035;28;20057;-88
2023/08/11 02:54:56;;;;;;;0.40;0.40;;;13.70;99.90;;;;;;5057868;28;20045;-88
2023/08/11 02:57:22;;;;;;;2.05;1.33;;;13.70;99.90;;;;;;5041314;28;20052;-88
2023/08/11 02:59:49;;;;;;;1.17;1.02;;;13.70;99.90;;;;;;5058024;28;20044;-88
2023/08/11 03:02:17;;;;;;;2.70;1.02;;;13.80;99.90;;;;;;5041790;28;20091;-88
2023/08/11 03:04:43;;;;;;;0.80;0.55;;;13.70;99.90;;;;;;5058007;28;20131;-88
2023/08/11 03:07:09;;;;;;;1.75;1.30;;;13.70;99.90;;;;;;5041567;28;20053;-88
2023/08/11 03:09:36;;;;;;;2.55;1.55;;;13.70;99.90;;;;;;5041376;28;20458;-88
2023/08/11 03:12:01;;;;;;;0.98;0.85;;;13.70;99.90;;;;;;5058300;28;20060;-88
2023/08/11 03:14:27;;;;;;;0.43;0.40;;;14.00;99.90;;;;;;5041949;28;20491;-88
2023/08/11 03:16:54;;;;;;;0.40;0.40;;;13.60;99.90;;;;;;5041655;28;20056;-88
2023/08/11 03:19:19;;;;;;;0.73;0.43;;;14.60;99.90;;;;;;5057879;28;20049;-88
2023/08/11 03:21:46;;;;;;;0.55;0.55;;;13.60;99.90;;;;;;5058439;28;20056;-88
2023/08/11 03:24:12;;;;;;;0.90;0.82;;;13.60;99.90;;;;;;5041217;28;20644;-88
2023/08/11 03:26:38;;;;;;;1.70;1.30;;;13.60;99.90;;;;;;5057872;28;20075;-89
2023/08/11 03:29:04;;;;;;;1.80;1.23;;;13.60;99.90;;;;;;5057905;28;20087;-88
2023/08/11 03:31:30;;;;;;;6.03;2.20;;;13.60;99.90;;;;;;5041218;28;20048;-88
2023/08/11 03:33:55;;;;;;;0.68;0.60;;;13.60;99.90;;;;;;5057624;28;20041;-89
2023/08/11 03:36:21;;;;;;;0.57;0.47;;;13.60;99.90;;;;;;5057621;28;20135;-88
2023/08/11 03:38:48;;;;;;;1.33;1.23;;;13.60;99.90;;;;;;5057205;28;20052;-88
2023/08/11 03:41:14;;;;;;;0.30;0.30;;;13.70;99.90;;;;;;5040584;28;20037;-88
2023/08/11 03:43:39;;;;;;;0.43;0.43;;;13.70;99.90;;;;;;5057374;28;20095;-88
2023/08/11 03:46:05;;;;;;;1.02;0.82;;;13.70;99.90;;;;;;5041053;28;20128;-88
2023/08/11 03:48:31;;;;;;;0.60;0.50;;;14.30;99.90;;;;;;5040438;28;20079;-88
2023/08/11 03:51:01;;;;;;;0.63;0.50;;;13.70;99.90;;;;;;5040620;28;20103;-88
2023/08/11 03:53:27;;;;;;;0.30;0.20;;;13.70;99.90;;;;;;5040257;28;20458;-88
2023/08/11 03:55:53;;;;;;;1.45;1.27;;;13.70;99.90;;;;;;5059557;28;20045;-89
2023/08/11 03:58:21;;;;;;;0.88;0.57;;;13.60;99.90;;;;;;5056921;28;20056;-88
2023/08/11 04:00:47;;;;;;;0.65;0.65;;;13.70;99.90;;;;;;5058427;28;20491;-88
2023/08/11 04:03:14;;;;;;;3.42;0.65;;;13.70;99.90;;;;;;5056790;28;20052;-88
2023/08/11 04:05:41;;;;;;;0.52;0.52;;;15.00;99.90;;;;;;5057636;28;20109;-88
2023/08/11 04:08:07;;;;;;;0.17;0.15;;;13.60;99.90;;;;;;5041126;28;20037;-88
2023/08/11 04:10:37;;;;;;;0.35;0.35;;;14.80;99.90;;;;;;5056166;28;20407;-87
2023/08/11 04:13:04;;;;;;;2.22;1.45;;;14.10;99.90;;;;;;5055637;28;20063;-88
2023/08/11 04:15:31;;;;;;;1.35;1.08;;;13.50;99.90;;;;;;5039984;28;20043;-88
2023/08/11 04:17:57;;;;;;;1.10;0.80;;;14.20;99.90;;;;;;5040311;28;20909;-88
2023/08/11 04:20:22;;;;;;;0.45;0.35;;;13.50;99.90;;;;;;5057176;28;20104;-88
2023/08/11 04:22:48;;;;;;;1.60;0.90;;;13.60;99.90;;;;;;5057405;28;20143;-88
2023/08/11 04:25:14;;;;;;;2.55;0.93;;;13.60;99.90;;;;;;5040440;28;20560;-88
2023/08/11 04:27:41;;;;;;;0.93;0.85;;;13.60;99.90;;;;;;5056549;28;20040;-88
2023/08/11 04:30:07;;;;;;;1.75;1.08;;;13.60;99.90;;;;;;5056170;28;20510;-88
2023/08/11 04:32:33;;;;;;;3.08;1.08;;;13.60;99.90;;;;;;5040260;28;20430;-87
2023/08/11 04:34:59;;;;;;;0.40;0.40;;;13.60;99.90;;;;;;5056029;28;20354;-88
2023/08/11 04:37:25;;;;;;;1.38;1.02;;;13.70;99.90;;;;;;5039517;28;20056;-88
2023/08/11 04:39:51;;;;;;;2.05;1.23;;;13.30;99.90;;;;;;5056033;28;20045;-88
2023/08/11 04:42:18;;;;;;;5.05;0.95;;;14.40;99.90;;;;;;5056418;28;20045;-88
2023/08/11 04:44:44;;;;;;;0.45;0.45;;;13.90;99.90;;;;;;5056301;28;20049;-87
2023/08/11 04:47:10;;;;;;;1.77;1.00;;;13.90;99.90;;;;;;5040182;28;20063;-87
2023/08/11 04:49:36;;;;;;;0.93;0.85;;;14.00;99.90;;;;;;5057335;28;20058;-87
2023/08/11 04:52:01;;;;;;;1.17;0.70;;;14.10;99.90;;;;;;5055284;28;20048;-88
2023/08/11 04:54:28;;;;;;;0.17;0.17;;;14.10;99.90;;;;;;5056098;28;20079;-87
2023/08/11 04:56:54;;;;;;;0.85;0.68;;;14.20;99.90;;;;;;5056646;28;20427;-87
2023/08/11 04:59:20;;;;;;;0.85;0.82;;;14.30;99.90;;;;;;5056676;28;20061;-88
2023/08/11 05:01:46;;;;;;;0.45;0.20;;;14.40;99.90;;;;;;5056590;28;20110;-87
2023/08/11 05:04:12;;;;;;;1.88;0.75;;;14.50;99.90;;;;;;5056057;28;20079;-88
2023/08/11 05:06:38;;;;;;;0.20;0.17;;;14.50;99.90;;;;;;5039428;28;20067;-87
2023/08/11 05:09:04;;;;;;;0.55;0.55;;;14.60;99.90;;;;;;5056597;28;20041;-87
2023/08/11 05:11:30;;;;;;;0.63;0.60;;;14.70;99.90;;;;;;5055324;28;20057;-88
2023/08/11 05:13:56;;;;;;;13.13;0.57;;;14.80;99.90;;;;;;5056070;28;20094;-88
2023/08/11 05:16:25;;;;;;;1.80;1.33;;;14.90;99.90;;;;;;5039742;28;20051;-88
2023/08/11 05:18:51;;;;;;;0.17;0.17;;;14.90;88.30;;;;;;5039857;28;20071;-87
2023/08/11 05:21:19;;;;;;;0.17;0.10;;;15.00;61.10;;;;;;5039480;28;20040;-87
2023/08/11 05:23:46;;;;;;;0.10;0.10;;;15.50;25.50;;;;;;5039586;28;20056;-87
2023/08/11 05:26:12;;;;;;;0.25;0.13;;;15.10;1.00;;;;;;5055409;28;20147;-87
2023/08/11 05:28:38;;;;;;;0.32;0.22;;;16.20;1.00;;;;;;5038779;28;20109;-88
2023/08/11 05:31:16;;;;;;;0.45;0.25;;;14.60;1.00;;;;;;5039332;28;20080;-89
2023/08/11 05:33:41;;;;;;;0.45;0.43;;;15.30;1.00;;;;;;5040685;28;20136;-88
2023/08/11 05:36:07;;;;;;;0.38;0.38;;;15.50;99.90;;;;;;5056543;28;20092;-88
2023/08/11 05:38:33;;;;;;;0.28;0.25;;;15.60;99.90;;;;;;5039407;28;20060;-89
2023/08/11 05:40:59;;;;;;;0.63;0.63;;;15.70;99.90;;;;;;5055517;28;20048;-88
2023/08/11 05:43:24;;;;;;;0.30;0.30;;;15.70;99.90;;;;;;5053559;28;20048;-88
2023/08/11 05:45:50;;;;;;;0.73;0.43;;;15.90;18.20;;;;;;5036355;28;20053;-89
2023/08/11 05:48:16;;;;;;;2.05;1.23;;;16.10;1.00;;;;;;5053522;28;20041;-89
2023/08/11 05:50:45;;;;;;;0.65;0.60;;;16.20;1.00;;;;;;5053011;28;20487;-88
2023/08/11 05:53:11;;;;;;;0.22;0.20;;;16.20;99.90;;;;;;5035041;28;20585;-89
2023/08/11 05:55:37;;;;;;;0.55;0.50;;;16.70;99.90;;;;;;5036328;28;20075;-88
2023/08/11 05:58:03;;;;;;;1.55;0.60;;;16.50;1.00;;;;;;5036132;28;20045;-89
2023/08/11 06:00:29;;;;;;;0.70;0.30;;;16.60;1.00;;;;;;5035899;28;20037;-88
2023/08/11 06:02:55;;;;;;;0.15;0.15;;;16.70;99.90;;;;;;5054010;28;20091;-88
2023/08/11 06:05:24;;;;;;;0.10;0.10;;;16.80;99.90;;;;;;5039768;28;20044;-88
2023/08/11 06:07:50;;;;;;;0.55;0.47;;;17.00;1.00;;;;;;5039105;28;20086;-89
2023/08/11 06:10:16;;;;;;;0.50;0.50;;;17.10;99.90;;;;;;5057108;28;20123;-89
2023/08/11 06:12:42;;;;;;;0.20;0.20;;;17.20;99.90;;;;;;5055977;28;20099;-89
2023/08/11 06:15:08;;;;;;;0.85;0.63;;;17.30;99.90;;;;;;5038410;28;20115;-88
2023/08/11 06:17:36;;;;;;;0.20;0.20;;;17.50;99.90;;;;;;5056041;28;20132;-88
2023/08/11 06:20:03;;;;;;;1.00;0.75;;;18.40;96.00;;;;;;5036624;28;20119;-88
2023/08/11 06:22:28;;;;;;;1.50;0.88;;;19.50;92.80;;;;;;5029259;28;20048;-88
2023/08/11 06:24:54;;;;;;;0.22;0.17;;;20.50;1.00;;;;;;5029509;28;20048;-88
2023/08/11 06:27:20;;;;;;;1.25;0.75;;;21.30;1.00;;;;;;5047173;28;20048;-88
2023/08/11 06:29:46;;;;;;;0.28;0.28;;;22.00;99.90;;;;;;5028842;28;20106;-88
2023/08/11 06:32:11;;;;;;;1.65;0.90;;;22.40;99.90;;;;;;5045735;28;20041;-89
2023/08/11 06:34:37;;;;;;;0.63;0.55;;;22.20;99.90;;;;;;5029065;28;20057;-88
2023/08/11 06:37:03;;;;;;;0.32;0.32;;;23.00;99.90;;;;;;5045283;28;20045;-89
2023/08/11 06:39:28;;;;;;;0.10;0.10;;;23.30;99.90;;;;;;5046170;28;20053;-89
2023/08/11 06:41:54;;;;;;;0.13;0.08;;;23.70;99.90;;;;;;5028999;28;20068;-89
2023/08/11 06:44:20;;;;;;;1.48;0.35;;;24.00;99.90;;;;;;5028178;28;20041;-89
2023/08/11 06:46:45;;;;;;;0.40;0.30;;;24.30;99.90;;;;;;5046449;28;20095;-89
2023/08/11 06:49:11;;;;;;;0.05;0.05;;;24.30;41.20;;;;;;5045780;28;20043;-89
2023/08/11 06:51:37;;;;;;;0.90;0.77;;;24.70;99.90;;;;;;5028946;28;20090;-88
2023/08/11 06:54:03;;;;;;;0.45;0.43;;;25.30;79.20;;;;;;5034814;28;20552;-89
2023/08/11 06:56:28;;;;;;;0.22;0.20;;;25.20;32.10;;;;;;5045622;28;20407;-90
2023/08/11 06:58:54;;;;;;;0.65;0.60;;;25.50;93.50;;;;;;5045027;28;20117;-88
2023/08/11 07:01:20;;;;;;;0.85;0.20;;;26.00;31.10;;;;;;5027825;28;20041;-88
2023/08/11 07:03:45;;;;;;;0.38;0.22;;;26.20;34.80;;;;;;5044965;28;20056;-87
2023/08/11 07:06:11;;;;;;;0.70;0.13;;;26.40;1.00;;;;;;5048068;28;20048;-88
2023/08/11 07:08:37;;;;;;;0.50;0.38;;;26.20;1.00;;;;;;5030123;28;20508;-88
2023/08/11 07:11:02;;;;;;;0.00;0.00;;;26.40;1.00;;;;;;5048485;28;20111;-88
2023/08/11 07:13:28;;;;;;;0.22;0.22;;;26.60;1.00;;;;;;5050047;28;20076;-88
2023/08/11 07:15:56;;;;;;;0.57;0.32;;;26.90;1.00;;;;;;5030890;28;20056;-88
2023/08/11 07:18:22;;;;;;;1.10;0.63;;;27.10;1.00;;;;;;5046723;28;20053;-88
2023/08/11 07:20:48;;;;;;;2.38;0.90;;;27.10;1.00;;;;;;5046126;28;20482;-88
2023/08/11 07:23:13;;;;;;;1.95;0.95;;;27.30;1.00;;;;;;5028100;28;20041;-88
2023/08/11 07:25:39;;;;;;;2.13;0.63;;;27.30;1.00;;;;;;5044458;28;20044;-88
2023/08/11 07:28:05;;;;;;;2.03;1.13;;;27.40;1.00;;;;;;5043797;28;20068;-88
2023/08/11 07:30:31;;;;;;;0.40;0.40;;;27.40;1.00;;;;;;5043869;28;20036;-89
2023/08/11 07:32:57;;;;;;;0.10;0.10;;;27.50;1.00;;;;;;5044484;28;20049;-89
2023/08/11 07:35:24;;;;;;;0.30;0.25;;;27.70;1.00;;;;;;5028246;28;20509;-89
2023/08/11 07:37:49;;;;;;;0.20;0.10;;;27.80;1.00;;;;;;5028519;28;20041;-88
2023/08/11 07:40:16;;;;;;;4.63;0.68;;;28.00;1.00;;;;;;5030002;28;20091;-88
2023/08/11 07:42:42;;;;;;;0.32;0.13;;;28.40;1.00;;;;;;5029163;28;20056;-88
2023/08/11 07:45:08;;;;;;;0.00;0.00;;;28.30;99.90;;;;;;5046741;28;20048;-88
2023/08/11 07:47:34;;;;;;;1.20;0.55;;;28.40;99.90;;;;;;5049671;28;20131;-88
2023/08/11 07:49:59;;;;;;;0.38;0.17;;;28.80;99.90;;;;;;5048123;28;20080;-88
2023/08/11 07:52:25;;;;;;;0.03;0.03;;;28.80;99.90;;;;;;5029706;28;20051;-88
2023/08/11 07:54:51;;;;;;;0.30;0.30;;;28.80;99.90;;;;;;5045093;28;20056;-88
2023/08/11 07:57:17;;;;;;;0.60;0.22;;;28.80;99.90;;;;;;5043472;28;20059;-89
2023/08/11 07:59:42;;;;;;;0.20;0.10;;;28.50;99.90;;;;;;5026138;28;20127;-88
2023/08/11 08:02:08;;;;;;;1.10;0.57;;;28.20;99.90;;;;;;5044122;28;20608;-87
2023/08/11 08:04:34;;;;;;;1.20;0.22;;;28.30;99.90;;;;;;5025637;28;20061;-86
2023/08/11 08:07:00;;;;;;;0.55;0.45;;;28.50;99.90;;;;;;5042341;28;20080;-87
2023/08/11 08:09:25;;;;;;;1.08;0.10;;;28.70;99.90;;;;;;5042643;28;20045;-87
2023/08/11 08:11:51;;;;;;;0.10;0.10;;;28.70;99.90;;;;;;5044065;28;20048;-89
2023/08/11 08:14:17;;;;;;;1.30;1.05;;;28.90;99.90;;;;;;5041506;28;20506;-88
2023/08/11 08:16:46;;;;;;;0.22;0.17;;;29.00;99.90;;;;;;5042552;28;20044;-88
2023/08/11 08:19:14;;;;;;;1.88;1.50;;;29.30;99.90;;;;;;5042926;28;20131;-88
2023/08/11 08:21:41;;;;;;;0.93;0.45;;;29.80;99.90;;;;;;5025870;28;20044;-88
2023/08/11 08:24:07;;;;;;;0.98;0.45;;;30.10;99.90;;;;;;5045420;28;20040;-88
2023/08/11 08:26:33;;;;;;;0.30;0.30;;;30.20;99.90;;;;;;5027835;28;20114;-88
2023/08/11 08:28:59;;;;;;;1.00;0.43;;;30.20;99.90;;;;;;5026557;28;20041;-89
2023/08/11 08:31:26;;;;;;;0.50;0.25;;;30.20;99.90;;;;;;5042799;28;20057;-88
2023/08/11 08:33:52;;;;;;;0.10;0.10;;;30.50;99.90;;;;;;5043652;28;20481;-86
2023/08/11 08:36:17;;;;;;;1.55;0.50;;;30.10;99.90;;;;;;5041556;28;20068;-86
2023/08/11 08:38:43;;;;;;;1.10;0.68;;;29.90;99.90;;;;;;5041294;28;20048;-86
2023/08/11 08:41:09;;;;;;;0.90;0.32;;;29.60;99.90;;;;;;5042915;28;20041;-87
2023/08/11 08:43:35;;;;;;;0.57;0.55;;;29.60;99.90;;;;;;5040929;28;20486;-85
2023/08/11 08:46:04;;;;;;;0.52;0.43;;;29.50;99.90;;;;;;5042571;28;20094;-88
2023/08/11 08:48:42;;;;;;;0.47;0.47;;;29.60;99.90;;;;;;5043068;28;20274;-89
2023/08/11 08:51:08;;;;;;;0.22;0.20;;;29.50;99.90;;;;;;5024792;28;20057;-87
2023/08/11 08:53:34;;;;;;;0.10;0.10;;;29.60;99.90;;;;;;5042349;28;20451;-86
2023/08/11 08:56:04;;;;;;;1.80;0.32;;;29.90;99.90;;;;;;5043320;28;20144;-85
2023/08/11 08:58:31;;;;;;;0.47;0.20;;;30.20;99.90;;;;;;5040519;28;20045;-88
2023/08/11 09:01:01;;;;;;;1.77;0.65;;;30.60;99.90;;;;;;5042969;28;20044;-88
2023/08/11 09:03:30;;;;;;;3.00;0.77;;;30.50;99.90;;;;;;5044676;28;20424;-86
2023/08/11 09:05:59;;;;;;;0.98;0.73;;;31.10;99.90;;;;;;5044176;28;20041;-86
2023/08/11 09:08:25;;;;;;;1.00;0.50;;;31.00;99.90;;;;;;5043499;28;20082;-86
2023/08/11 09:10:51;;;;;;;22.23;1.08;;;31.00;99.90;;;;;;5043842;28;20052;-88
2023/08/11 09:13:16;;;;;;;0.77;0.68;;;30.80;99.90;;;;;;5042454;28;20602;-88
2023/08/11 09:15:44;;;;;;;0.82;0.43;;;30.70;99.90;;;;;;5042814;28;20044;-87
2023/08/11 09:18:16;;;;;;;15.70;0.50;;;30.40;98.20;;;;;;5042051;28;20052;-88
2023/08/11 09:20:45;;;;;;;0.00;0.00;;;30.30;99.90;;;;;;5041956;28;20972;-86
2023/08/11 09:23:10;;;;;;;1.00;0.20;;;30.60;99.90;;;;;;5042050;28;20037;-87
2023/08/11 09:25:37;;;;;;;0.52;0.20;;;30.50;98.50;;;;;;5042478;28;20099;-86
2023/08/11 09:28:02;;;;;;;0.75;0.43;;;30.50;86.30;;;;;;5042425;28;20499;-86
2023/08/11 09:30:31;;;;;;;0.32;0.25;;;30.50;93.30;;;;;;5042678;28;20067;-86
2023/08/11 09:33:00;;;;;;;0.40;0.40;;;30.20;89.70;;;;;;5022782;28;20045;-86
2023/08/11 09:35:26;;;;;;;0.22;0.15;;;30.50;98.60;;;;;;5023327;28;20134;-86
2023/08/11 09:37:53;;;;;;;0.13;0.13;;;30.60;97.30;;;;;;5042241;28;20072;-85
2023/08/11 09:40:19;;;;;;;1.08;0.52;;;30.80;99.90;;;;;;5046916;28;20049;-85
2023/08/11 09:42:45;;;;;;;0.45;0.40;;;31.30;99.90;;;;;;5048211;28;20569;-86
2023/08/11 09:45:10;;;;;;;0.52;0.20;;;31.40;99.90;;;;;;5046033;28;20053;-86
2023/08/11 09:47:36;;;;;;;0.38;0.38;;;31.40;99.90;;;;;;5044977;28;20479;-86
2023/08/11 09:50:03;;;;;;;9.82;0.50;;;31.40;99.90;;;;;;5045486;28;20131;-85
2023/08/11 09:52:33;;;;;;;2.63;0.90;;;31.40;99.90;;;;;;5045406;28;20048;-86
2023/08/11 09:54:59;;;;;;;0.10;0.10;;;31.30;99.90;;;;;;5045332;28;20523;-87
2023/08/11 09:57:26;;;;;;;0.32;0.08;;;31.20;99.90;;;;;;5044047;28;20056;-86
2023/08/11 09:59:54;;;;;;;0.45;0.40;;;30.80;75.90;;;;;;5042975;28;20514;-86
2023/08/11 10:02:24;;;;;;;0.98;0.52;;;30.40;85.70;;;;;;5045164;28;20268;-86
2023/08/11 10:04:57;;;;;;;0.47;0.28;;;30.20;69.50;;;;;;5045575;28;20053;-86
2023/08/11 10:07:29;;;;;;;1.08;0.70;;;30.00;59.40;;;;;;5045951;28;20597;-86
2023/08/11 10:09:56;;;;;;;0.45;0.32;;;29.80;63.10;;;;;;5045269;28;20076;-85
2023/08/11 10:12:22;;;;;;;0.20;0.20;;;29.70;70.70;;;;;;5046248;28;20467;-86
2023/08/11 10:14:48;;;;;;;1.38;0.20;;;29.30;49.60;;;;;;5046818;28;20080;-86
2023/08/11 10:17:13;;;;;;;0.80;0.65;;;29.20;45.00;;;;;;5047673;28;20053;-86
2023/08/11 10:19:39;;;;;;;0.20;0.17;;;29.00;51.40;;;;;;5042987;28;20052;-86
2023/08/11 10:22:06;;;;;;;0.10;0.10;;;29.00;52.20;;;;;;5041786;28;20053;-86
2023/08/11 10:24:34;;;;;;;0.08;0.08;;;29.00;78.20;;;;;;5048467;28;20057;-86
2023/08/11 10:27:00;;;;;;;0.35;0.30;;;28.90;22.60;;;;;;5049176;28;20033;-85
2023/08/11 10:29:26;;;;;;;0.50;0.38;;;28.80;40.00;;;;;;5048775;28;20049;-82
2023/08/11 10:31:57;;;;;;;0.55;0.30;;;29.10;85.40;;;;;;5049258;28;20048;-86
2023/08/11 10:34:25;;;;;;;1.67;1.08;;;29.60;69.90;;;;;;5047204;28;20049;-86
2023/08/11 10:36:53;;;;;;;1.77;0.65;;;29.30;39.60;;;;;;5049076;28;20072;-86
2023/08/11 10:39:20;;;;;;;0.30;0.22;;;29.70;58.80;;;;;;5049311;28;20187;-86
2023/08/11 10:41:46;;;;;;;0.47;0.43;;;29.90;69.90;;;;;;5047067;28;20415;-86
2023/08/11 10:44:15;;;;;;;0.75;0.25;;;29.70;68.90;;;;;;5048772;28;20037;-86
2023/08/11 10:46:41;;;;;;;0.70;0.43;;;30.10;78.00;;;;;;5048781;28;20060;-87
2023/08/11 10:49:07;;;;;;;0.35;0.25;;;30.60;78.60;;;;;;5048467;28;20041;-86
2023/08/11 10:51:36;;;;;;;0.22;0.22;;;31.10;90.10;;;;;;5047806;28;20057;-87
2023/08/11 10:54:11;;;;;;;1.67;0.43;;;31.20;94.90;;;;;;5047620;28;20053;-86
2023/08/11 10:56:38;;;;;;;;;;;31.50;99.90;;;;;;5047599;28;20124;-86
2023/08/11 10:59:18;;;;;;;0.30;0.30;;;31.60;83.80;;;;;;5049094;28;19924;-86
2023/08/11 11:01:47;;;;;;;0.88;0.45;;;31.40;39.50;;;;;;5046971;28;20053;-86
2023/08/11 11:04:13;;;;;;;0.22;0.22;;;31.10;32.30;;;;;;5048874;28;20045;-87
2023/08/11 11:06:40;;;;;;;0.25;0.17;;;30.90;37.60;;;;;;5049178;28;20060;-86
2023/08/11 11:09:09;;;;;;;1.45;0.75;;;30.80;15.80;;;;;;5047146;28;20044;-87
2023/08/11 11:11:38;;;;;;;0.00;0.00;;;30.50;13.50;;;;;;5048832;28;20048;-86
2023/08/11 11:14:09;;;;;;;0.20;0.10;;;30.30;2.30;;;;;;5046743;28;20617;-86
2023/08/11 11:16:35;;;;;;;0.45;0.30;;;30.30;1.00;;;;;;5047014;28;20125;-87
2023/08/11 11:19:02;;;;;;;2.53;0.80;;;30.40;5.90;;;;;;5046728;28;20057;-87
2023/08/11 11:21:28;;;;;;;0.57;0.30;;;30.70;6.60;;;;;;5048688;28;20139;-86
2023/08/11 11:23:54;;;;;;;1.45;0.25;;;30.80;13.30;;;;;;5047217;28;20128;-87
2023/08/11 11:26:22;;;;;;;0.15;0.15;;;30.80;30.90;;;;;;5048354;28;20398;-87
2023/08/11 11:28:49;;;;;;;0.30;0.30;;;31.10;44.60;;;;;;5048690;28;20610;-86
2023/08/11 11:31:16;;;;;;;0.25;0.17;;;31.20;21.30;;;;;;5047853;28;20045;-87
2023/08/11 11:33:42;;;;;;;0.50;0.25;;;31.30;22.70;;;;;;5030252;28;20049;-87
2023/08/11 11:36:08;;;;;;;0.30;0.30;;;31.40;6.10;;;;;;5046089;28;20137;-86
2023/08/11 11:38:34;;;;;;;0.13;0.03;;;31.50;27.10;;;;;;5046779;28;20064;-87
2023/08/11 11:41:00;;;;;;;1.10;0.22;;;31.90;22.10;;;;;;5046893;28;20060;-87
2023/08/11 11:43:25;;;;;;;0.22;0.10;;;32.30;27.90;;;;;;5046411;28;20045;-87
2023/08/11 11:45:52;;;;;;;0.28;0.25;;;32.60;34.20;;;;;;5048228;28;20045;-87
2023/08/11 11:48:21;;;;;;;0.20;0.20;;;32.90;13.50;;;;;;5046642;28;20554;-86
2023/08/11 11:50:47;;;;;;;0.22;0.22;;;32.70;17.50;;;;;;5048348;28;20512;-87
2023/08/11 11:53:13;;;;;;;0.50;0.22;;;32.70;5.70;;;;;;5047696;28;20673;-86
2023/08/11 11:55:46;;;;;;;0.80;0.32;;;32.50;7.60;;;;;;5048796;28;20049;-87
2023/08/11 11:58:16;;;;;;;0.75;0.30;;;32.50;1.00;;;;;;5049576;28;20128;-86
2023/08/11 12:00:44;;;;;;;1.00;0.43;;;32.50;1.00;;;;;;5048251;28;20067;-86
2023/08/11 12:03:10;;;;;;;0.45;0.32;;;32.90;9.80;;;;;;5049782;28;20053;-87
2023/08/11 12:05:36;;;;;;;0.03;0.03;;;33.30;33.70;;;;;;5048151;28;20049;-86
2023/08/11 12:08:22;;;;;;;0.10;0.10;;;34.00;38.40;;;;;;5053128;28;20461;-88
2023/08/11 12:10:48;;;;;;;1.27;0.63;;;34.40;18.50;;;;;;5068156;28;20037;-87
2023/08/11 12:13:14;;;;;;;1.30;0.55;;;34.40;1.00;;;;;;5070400;28;20052;-87
2023/08/11 12:15:40;;;;;;;1.05;0.50;;;34.30;1.00;;;;;;5055189;28;20036;-87
2023/08/11 12:18:06;;;;;;;0.20;0.10;;;34.50;1.00;;;;;;5070524;28;20067;-87
2023/08/11 12:20:34;;;;;;;0.00;0.00;;;34.70;1.00;;;;;;5055738;28;20044;-87
2023/08/11 12:22:59;;;;;;;0.38;0.13;;;35.10;1.00;;;;;;5053662;28;20049;-87
2023/08/11 12:25:25;;;;;;;0.63;0.40;;;35.10;1.00;;;;;;5054647;28;20047;-87
2023/08/11 12:27:53;;;;;;;0.52;0.22;;;35.10;1.00;;;;;;5052141;28;20049;-87
2023/08/11 12:30:19;;;;;;;0.85;0.43;;;34.70;1.00;;;;;;5052754;28;20055;-87
2023/08/11 12:32:45;;;;;;;0.38;0.30;;;34.60;1.00;;;;;;5031586;28;20056;-87
2023/08/11 12:35:11;;;;;;;0.10;0.10;;;34.30;1.00;;;;;;5047510;28;20053;-87
2023/08/11 12:37:37;;;;;;;0.00;0.00;;;34.10;99.90;;;;;;5031750;28;20048;-87
2023/08/11 12:40:03;;;;;;;5.28;0.90;;;34.30;1.00;;;;;;5047110;28;20123;-86
2023/08/11 12:42:29;;;;;;;1.40;0.77;;;34.50;1.00;;;;;;5047140;28;20519;-87
2023/08/11 12:44:55;;;;;;;1.20;1.02;;;34.40;1.00;;;;;;5030283;28;20141;-87
2023/08/11 12:47:21;;;;;;;1.85;1.10;;;34.80;1.00;;;;;;5029204;28;20102;-87
2023/08/11 12:49:47;;;;;;;0.35;0.17;;;34.90;1.00;;;;;;5045689;28;20526;-87